Grant Township, Michigan
Current Conditions -  °F | °C
As of 8:16 PM on Saturday 25 Oct 2014 (Local Time) from KPHN Reporting Station
Clear Clear  
Wind Chill: 59°   Ceiling: Unl
Heat Index: 59°   Visibility: 10mi
Dew Point: 34°   Wind: 8mph
Humidity: 39%   Direction: 280°W
Pressure: 29.73"   Gusts: 16mph
Location:  43.1337°N, 82.5933°W
Report Text: KPHN 260016Z AUTO 28007G14KT 250V310 10SM CLR 15/01 A2973 RMK AO2
Loading
Personal Weather Stations






























Interactive Weather Map
Tropical Storm Tracking
New forecast layout! Learn more

10-Day Weather Forecast

Advertisements
Track Severe Weather on mobile